createdAt,value
2022-10-19T00:16:54.382Z,13.54
2022-10-19T00:45:35.770Z,13.17
2022-10-19T01:14:17.918Z,12.89
2022-10-19T01:43:00.336Z,12.72
2022-10-19T02:11:35.578Z,12.8
2022-10-19T02:40:19.521Z,12.94
2022-10-19T03:09:03.840Z,12.85
2022-10-19T03:37:44.141Z,12.8
2022-10-19T04:06:22.781Z,12.8
2022-10-19T04:34:50.070Z,12.63
2022-10-19T05:03:35.296Z,12.56
2022-10-19T05:31:53.336Z,12.4
2022-10-19T06:00:22.528Z,12.45
2022-10-19T06:28:44.274Z,12.5
2022-10-19T06:57:14.047Z,12.71
2022-10-19T07:25:50.101Z,12.78
2022-10-19T07:54:19.317Z,13.11
2022-10-19T08:22:59.628Z,13.54
2022-10-19T08:51:14.104Z,13.69
2022-10-19T09:19:48.161Z,14.03
2022-10-19T09:48:16.682Z,13.88
2022-10-19T10:16:37.729Z,14.32
2022-10-19T10:45:17.323Z,14.73
2022-10-19T11:13:55.949Z,14.8
2022-10-19T11:42:28.362Z,15.21
2022-10-19T12:11:05.829Z,16.05
2022-10-19T12:39:40.008Z,16.9
2022-10-19T13:08:20.256Z,17.86
2022-10-19T13:36:59.894Z,18.39
2022-10-19T14:05:32.453Z,18.47
2022-10-19T14:34:07.241Z,18.74
2022-10-19T15:02:42.383Z,18.64
2022-10-19T15:31:21.393Z,17.97
2022-10-19T15:59:54.431Z,17.68
2022-10-19T16:28:35.921Z,16.83
2022-10-19T16:57:25.700Z,15.92
2022-10-19T17:26:11.029Z,15.44
2022-10-19T17:55:17.466Z,15.1
2022-10-19T18:23:18.892Z,14.67
2022-10-19T18:52:05.842Z,14.23
2022-10-19T19:20:41.359Z,13.8
2022-10-19T19:49:18.354Z,13.78
2022-10-19T20:18:16.462Z,13.3
2022-10-19T20:47:02.463Z,13.05
2022-10-19T21:16:05.851Z,12.9
2022-10-19T21:45:01.274Z,12.48
2022-10-19T22:13:17.273Z,12.32
2022-10-19T23:10:33.201Z,12.55
2022-10-19T23:39:20.670Z,12.58
